sensor_id;sensor_type;location;lat;lon;timestamp;P1;durP1;ratioP1;P2;durP2;ratioP2
2884;SDS011;54691;48.262;11.586;2022-09-23T00:01:50;6.22;;;2.95;;
2884;SDS011;54691;48.262;11.586;2022-09-23T00:08:48;6.95;;;3.27;;
2884;SDS011;54691;48.262;11.586;2022-09-23T00:15:46;7.72;;;3.17;;
2884;SDS011;54691;48.262;11.586;2022-09-23T00:22:43;11.88;;;3.33;;
2884;SDS011;54691;48.262;11.586;2022-09-23T00:29:40;6.15;;;3.00;;
2884;SDS011;54691;48.262;11.586;2022-09-23T00:36:37;6.97;;;3.12;;
2884;SDS011;54691;48.262;11.586;2022-09-23T00:43:39;6.90;;;2.92;;
2884;SDS011;54691;48.262;11.586;2022-09-23T00:50:36;8.70;;;3.90;;
2884;SDS011;54691;48.262;11.586;2022-09-23T00:57:35;8.18;;;4.22;;
2884;SDS011;54691;48.262;11.586;2022-09-23T01:04:33;6.55;;;3.10;;
2884;SDS011;54691;48.262;11.586;2022-09-23T01:22:16;7.45;;;3.50;;
2884;SDS011;54691;48.262;11.586;2022-09-23T01:39:56;10.80;;;3.65;;
2884;SDS011;54691;48.262;11.586;2022-09-23T01:43:28;6.95;;;3.75;;
2884;SDS011;54691;48.262;11.586;2022-09-23T01:50:25;6.67;;;3.50;;
2884;SDS011;54691;48.262;11.586;2022-09-23T01:57:51;9.55;;;4.20;;
2884;SDS011;54691;48.262;11.586;2022-09-23T02:04:53;8.43;;;4.42;;
2884;SDS011;54691;48.262;11.586;2022-09-23T02:11:50;11.90;;;3.83;;
2884;SDS011;54691;48.262;11.586;2022-09-23T02:18:50;8.78;;;3.33;;
2884;SDS011;54691;48.262;11.586;2022-09-23T02:25:55;8.48;;;4.12;;
2884;SDS011;54691;48.262;11.586;2022-09-23T02:29:30;8.95;;;4.15;;
2884;SDS011;54691;48.262;11.586;2022-09-23T02:36:27;12.85;;;4.40;;
2884;SDS011;54691;48.262;11.586;2022-09-23T02:43:33;13.43;;;4.20;;
2884;SDS011;54691;48.262;11.586;2022-09-23T02:53:57;14.07;;;4.25;;
2884;SDS011;54691;48.262;11.586;2022-09-23T03:01:12;8.63;;;3.70;;
2884;SDS011;54691;48.262;11.586;2022-09-23T03:11:37;11.22;;;4.20;;
2884;SDS011;54691;48.262;11.586;2022-09-23T03:18:36;10.68;;;4.22;;
2884;SDS011;54691;48.262;11.586;2022-09-23T03:25:35;6.75;;;3.50;;
2884;SDS011;54691;48.262;11.586;2022-09-23T03:32:35;6.67;;;3.22;;
2884;SDS011;54691;48.262;11.586;2022-09-23T03:39:57;8.60;;;3.98;;
2884;SDS011;54691;48.262;11.586;2022-09-23T03:46:49;7.60;;;3.90;;
2884;SDS011;54691;48.262;11.586;2022-09-23T03:53:48;8.45;;;3.60;;
2884;SDS011;54691;48.262;11.586;2022-09-23T04:00:45;9.18;;;3.58;;
2884;SDS011;54691;48.262;11.586;2022-09-23T04:07:44;9.60;;;3.70;;
2884;SDS011;54691;48.262;11.586;2022-09-23T04:14:41;7.40;;;3.52;;
2884;SDS011;54691;48.262;11.586;2022-09-23T04:21:38;7.85;;;3.72;;
2884;SDS011;54691;48.262;11.586;2022-09-23T04:28:36;13.60;;;3.75;;
2884;SDS011;54691;48.262;11.586;2022-09-23T04:35:33;10.10;;;4.20;;
2884;SDS011;54691;48.262;11.586;2022-09-23T04:42:30;12.43;;;3.80;;
2884;SDS011;54691;48.262;11.586;2022-09-23T04:49:27;8.93;;;3.90;;
2884;SDS011;54691;48.262;11.586;2022-09-23T04:56:26;7.67;;;3.70;;
2884;SDS011;54691;48.262;11.586;2022-09-23T05:03:24;22.52;;;5.47;;
2884;SDS011;54691;48.262;11.586;2022-09-23T05:10:21;18.55;;;5.55;;
2884;SDS011;54691;48.262;11.586;2022-09-23T05:17:19;31.82;;;8.55;;
2884;SDS011;54691;48.262;11.586;2022-09-23T05:24:16;30.00;;;7.40;;
2884;SDS011;54691;48.262;11.586;2022-09-23T05:31:14;14.63;;;6.47;;
2884;SDS011;54691;48.262;11.586;2022-09-23T05:38:12;23.45;;;7.05;;
2884;SDS011;54691;48.262;11.586;2022-09-23T05:45:12;20.85;;;7.12;;
2884;SDS011;54691;48.262;11.586;2022-09-23T05:52:09;23.92;;;9.38;;
2884;SDS011;54691;48.262;11.586;2022-09-23T05:59:06;18.67;;;7.85;;
2884;SDS011;54691;48.262;11.586;2022-09-23T06:06:03;16.85;;;7.17;;
2884;SDS011;54691;48.262;11.586;2022-09-23T06:13:00;17.55;;;7.60;;
2884;SDS011;54691;48.262;11.586;2022-09-23T06:19:59;23.80;;;8.93;;
2884;SDS011;54691;48.262;11.586;2022-09-23T06:26:56;17.92;;;7.30;;
2884;SDS011;54691;48.262;11.586;2022-09-23T06:33:53;17.17;;;7.35;;
2884;SDS011;54691;48.262;11.586;2022-09-23T06:40:51;38.53;;;9.48;;
2884;SDS011;54691;48.262;11.586;2022-09-23T06:47:52;42.53;;;8.90;;
2884;SDS011;54691;48.262;11.586;2022-09-23T06:54:49;26.62;;;8.10;;
2884;SDS011;54691;48.262;11.586;2022-09-23T07:01:47;15.50;;;7.50;;
2884;SDS011;54691;48.262;11.586;2022-09-23T07:08:45;17.45;;;8.48;;
2884;SDS011;54691;48.262;11.586;2022-09-23T07:15:49;20.95;;;9.03;;
2884;SDS011;54691;48.262;11.586;2022-09-23T07:22:49;18.73;;;8.58;;
2884;SDS011;54691;48.262;11.586;2022-09-23T07:29:47;15.65;;;7.60;;
2884;SDS011;54691;48.262;11.586;2022-09-23T07:36:45;18.00;;;7.00;;
2884;SDS011;54691;48.262;11.586;2022-09-23T07:43:42;26.57;;;7.47;;
2884;SDS011;54691;48.262;11.586;2022-09-23T07:50:39;19.57;;;6.67;;
2884;SDS011;54691;48.262;11.586;2022-09-23T07:57:36;15.55;;;6.60;;
2884;SDS011;54691;48.262;11.586;2022-09-23T08:04:33;28.73;;;7.87;;
2884;SDS011;54691;48.262;11.586;2022-09-23T08:11:32;13.45;;;7.33;;
2884;SDS011;54691;48.262;11.586;2022-09-23T08:18:31;12.20;;;6.50;;
2884;SDS011;54691;48.262;11.586;2022-09-23T08:25:30;13.65;;;5.33;;
2884;SDS011;54691;48.262;11.586;2022-09-23T08:32:27;10.32;;;5.28;;
2884;SDS011;54691;48.262;11.586;2022-09-23T08:39:24;12.53;;;5.37;;
2884;SDS011;54691;48.262;11.586;2022-09-23T08:46:23;18.00;;;6.28;;
2884;SDS011;54691;48.262;11.586;2022-09-23T08:53:27;9.73;;;5.10;;
2884;SDS011;54691;48.262;11.586;2022-09-23T08:56:58;8.20;;;4.30;;
2884;SDS011;54691;48.262;11.586;2022-09-23T09:04:13;9.23;;;5.65;;
2884;SDS011;54691;48.262;11.586;2022-09-23T09:07:36;6.97;;;3.90;;
2884;SDS011;54691;48.262;11.586;2022-09-23T09:25:22;6.55;;;3.83;;
2884;SDS011;54691;48.262;11.586;2022-09-23T09:40:00;7.17;;;3.00;;
2884;SDS011;54691;48.262;11.586;2022-09-23T09:50:46;4.78;;;2.27;;
2884;SDS011;54691;48.262;11.586;2022-09-23T10:01:18;2.47;;;1.87;;
2884;SDS011;54691;48.262;11.586;2022-09-23T10:08:29;4.58;;;2.05;;
2884;SDS011;54691;48.262;11.586;2022-09-23T10:12:12;3.17;;;1.65;;
2884;SDS011;54691;48.262;11.586;2022-09-23T10:19:02;6.78;;;2.10;;
2884;SDS011;54691;48.262;11.586;2022-09-23T10:26:00;6.97;;;2.12;;
2884;SDS011;54691;48.262;11.586;2022-09-23T10:32:58;3.83;;;2.05;;
2884;SDS011;54691;48.262;11.586;2022-09-23T10:39:56;6.53;;;2.50;;
2884;SDS011;54691;48.262;11.586;2022-09-23T10:47:55;5.65;;;2.30;;
2884;SDS011;54691;48.262;11.586;2022-09-23T10:58:33;3.83;;;2.12;;
2884;SDS011;54691;48.262;11.586;2022-09-23T11:02:15;3.27;;;2.00;;
2884;SDS011;54691;48.262;11.586;2022-09-23T11:09:32;5.07;;;1.90;;
2884;SDS011;54691;48.262;11.586;2022-09-23T11:34:29;3.30;;;1.80;;
2884;SDS011;54691;48.262;11.586;2022-09-23T11:41:31;6.10;;;1.52;;
2884;SDS011;54691;48.262;11.586;2022-09-23T11:52:05;5.03;;;1.83;;
2884;SDS011;54691;48.262;11.586;2022-09-23T11:59:18;2.87;;;1.92;;
2884;SDS011;54691;48.262;11.586;2022-09-23T12:06:44;2.33;;;1.50;;
2884;SDS011;54691;48.262;11.586;2022-09-23T12:10:13;5.72;;;2.60;;
2884;SDS011;54691;48.262;11.586;2022-09-23T12:17:33;4.65;;;2.95;;
2884;SDS011;54691;48.262;11.586;2022-09-23T12:21:00;2.12;;;1.27;;
2884;SDS011;54691;48.262;11.586;2022-09-23T12:27:55;2.90;;;1.50;;
2884;SDS011;54691;48.262;11.586;2022-09-23T12:34:56;7.90;;;1.72;;
2884;SDS011;54691;48.262;11.586;2022-09-23T12:41:58;5.50;;;2.20;;
2884;SDS011;54691;48.262;11.586;2022-09-23T12:52:31;3.95;;;2.05;;
2884;SDS011;54691;48.262;11.586;2022-09-23T12:59:30;3.05;;;1.62;;
2884;SDS011;54691;48.262;11.586;2022-09-23T13:10:18;3.98;;;1.32;;
2884;SDS011;54691;48.262;11.586;2022-09-23T13:13:45;3.40;;;1.95;;
2884;SDS011;54691;48.262;11.586;2022-09-23T13:17:35;2.60;;;1.65;;
2884;SDS011;54691;48.262;11.586;2022-09-23T13:31:33;2.95;;;1.70;;
2884;SDS011;54691;48.262;11.586;2022-09-23T13:38:45;8.70;;;2.30;;
2884;SDS011;54691;48.262;11.586;2022-09-23T13:45:43;5.30;;;1.72;;
2884;SDS011;54691;48.262;11.586;2022-09-23T13:52:42;3.72;;;1.67;;
2884;SDS011;54691;48.262;11.586;2022-09-23T13:59:43;2.47;;;1.37;;
2884;SDS011;54691;48.262;11.586;2022-09-23T14:06:49;3.02;;;2.05;;
2884;SDS011;54691;48.262;11.586;2022-09-23T14:13:48;6.08;;;1.87;;
2884;SDS011;54691;48.262;11.586;2022-09-23T14:20:47;3.05;;;1.98;;
2884;SDS011;54691;48.262;11.586;2022-09-23T14:31:21;3.62;;;2.30;;
2884;SDS011;54691;48.262;11.586;2022-09-23T14:38:22;3.10;;;1.77;;
2884;SDS011;54691;48.262;11.586;2022-09-23T14:42:10;7.12;;;1.80;;
2884;SDS011;54691;48.262;11.586;2022-09-23T14:52:47;6.87;;;1.90;;
2884;SDS011;54691;48.262;11.586;2022-09-23T14:56:27;5.50;;;2.75;;
2884;SDS011;54691;48.262;11.586;2022-09-23T15:10:36;4.17;;;2.17;;
2884;SDS011;54691;48.262;11.586;2022-09-23T15:17:43;3.27;;;1.70;;
2884;SDS011;54691;48.262;11.586;2022-09-23T15:21:15;4.90;;;1.80;;
2884;SDS011;54691;48.262;11.586;2022-09-23T15:35:23;2.80;;;2.08;;
2884;SDS011;54691;48.262;11.586;2022-09-23T15:42:23;6.58;;;3.05;;
2884;SDS011;54691;48.262;11.586;2022-09-23T15:49:28;2.92;;;1.70;;
2884;SDS011;54691;48.262;11.586;2022-09-23T15:59:54;2.62;;;1.60;;
2884;SDS011;54691;48.262;11.586;2022-09-23T16:10:27;3.45;;;2.10;;
2884;SDS011;54691;48.262;11.586;2022-09-23T16:17:25;5.58;;;2.98;;
2884;SDS011;54691;48.262;11.586;2022-09-23T16:24:24;5.10;;;2.30;;
2884;SDS011;54691;48.262;11.586;2022-09-23T16:31:22;3.15;;;2.30;;
2884;SDS011;54691;48.262;11.586;2022-09-23T16:38:23;4.37;;;2.33;;
2884;SDS011;54691;48.262;11.586;2022-09-23T16:45:23;7.62;;;2.35;;
2884;SDS011;54691;48.262;11.586;2022-09-23T16:52:24;22.40;;;6.72;;
2884;SDS011;54691;48.262;11.586;2022-09-23T16:59:22;18.27;;;8.30;;
2884;SDS011;54691;48.262;11.586;2022-09-23T17:06:48;7.90;;;3.62;;
2884;SDS011;54691;48.262;11.586;2022-09-23T17:10:17;7.70;;;3.30;;
2884;SDS011;54691;48.262;11.586;2022-09-23T17:17:23;10.80;;;2.27;;
2884;SDS011;54691;48.262;11.586;2022-09-23T17:24:17;3.95;;;1.77;;
2884;SDS011;54691;48.262;11.586;2022-09-23T17:31:16;10.20;;;2.50;;
2884;SDS011;54691;48.262;11.586;2022-09-23T17:38:13;3.72;;;2.10;;
2884;SDS011;54691;48.262;11.586;2022-09-23T17:45:12;11.95;;;6.05;;
2884;SDS011;54691;48.262;11.586;2022-09-23T17:52:09;5.83;;;2.37;;
2884;SDS011;54691;48.262;11.586;2022-09-23T17:59:13;6.00;;;2.35;;
2884;SDS011;54691;48.262;11.586;2022-09-23T18:09:38;5.97;;;2.50;;
2884;SDS011;54691;48.262;11.586;2022-09-23T18:16:36;8.55;;;3.20;;
2884;SDS011;54691;48.262;11.586;2022-09-23T18:23:37;6.00;;;3.12;;
2884;SDS011;54691;48.262;11.586;2022-09-23T18:30:34;8.48;;;4.75;;
2884;SDS011;54691;48.262;11.586;2022-09-23T18:37:40;10.32;;;3.65;;
2884;SDS011;54691;48.262;11.586;2022-09-23T18:41:12;8.40;;;3.90;;
2884;SDS011;54691;48.262;11.586;2022-09-23T18:48:14;10.15;;;3.77;;
2884;SDS011;54691;48.262;11.586;2022-09-23T18:52:26;9.53;;;3.58;;
2884;SDS011;54691;48.262;11.586;2022-09-23T18:59:24;8.10;;;3.40;;
2884;SDS011;54691;48.262;11.586;2022-09-23T19:06:24;7.37;;;3.60;;
2884;SDS011;54691;48.262;11.586;2022-09-23T19:13:23;6.33;;;3.70;;
2884;SDS011;54691;48.262;11.586;2022-09-23T19:20:20;8.70;;;4.42;;
2884;SDS011;54691;48.262;11.586;2022-09-23T19:27:17;8.90;;;2.98;;
2884;SDS011;54691;48.262;11.586;2022-09-23T19:34:15;6.05;;;2.52;;
2884;SDS011;54691;48.262;11.586;2022-09-23T19:41:12;8.08;;;3.45;;
2884;SDS011;54691;48.262;11.586;2022-09-23T19:44:42;6.97;;;3.00;;
2884;SDS011;54691;48.262;11.586;2022-09-23T19:51:39;7.42;;;3.12;;
2884;SDS011;54691;48.262;11.586;2022-09-23T19:58:38;4.28;;;2.90;;
2884;SDS011;54691;48.262;11.586;2022-09-23T20:05:35;11.08;;;3.20;;
2884;SDS011;54691;48.262;11.586;2022-09-23T20:12:33;11.25;;;3.65;;
2884;SDS011;54691;48.262;11.586;2022-09-23T20:19:32;9.13;;;3.55;;
2884;SDS011;54691;48.262;11.586;2022-09-23T20:26:31;6.20;;;3.35;;
2884;SDS011;54691;48.262;11.586;2022-09-23T20:30:23;7.40;;;4.22;;
2884;SDS011;54691;48.262;11.586;2022-09-23T20:37:22;16.10;;;4.35;;
2884;SDS011;54691;48.262;11.586;2022-09-23T20:44:23;4.78;;;3.22;;
2884;SDS011;54691;48.262;11.586;2022-09-23T20:51:20;6.12;;;3.05;;
2884;SDS011;54691;48.262;11.586;2022-09-23T20:58:22;16.62;;;6.37;;
2884;SDS011;54691;48.262;11.586;2022-09-23T21:05:19;10.08;;;5.28;;
2884;SDS011;54691;48.262;11.586;2022-09-23T21:12:16;12.90;;;5.47;;
2884;SDS011;54691;48.262;11.586;2022-09-23T21:19:13;7.53;;;4.33;;
2884;SDS011;54691;48.262;11.586;2022-09-23T21:33:08;11.38;;;4.53;;
2884;SDS011;54691;48.262;11.586;2022-09-23T21:40:09;10.00;;;5.03;;
2884;SDS011;54691;48.262;11.586;2022-09-23T21:44:04;14.85;;;4.65;;
2884;SDS011;54691;48.262;11.586;2022-09-23T21:51:03;16.77;;;5.35;;
2884;SDS011;54691;48.262;11.586;2022-09-23T21:57:59;11.73;;;5.33;;
2884;SDS011;54691;48.262;11.586;2022-09-23T22:04:57;11.75;;;5.40;;
2884;SDS011;54691;48.262;11.586;2022-09-23T22:11:54;13.40;;;5.17;;
2884;SDS011;54691;48.262;11.586;2022-09-23T22:15:36;10.03;;;5.05;;
2884;SDS011;54691;48.262;11.586;2022-09-23T22:22:39;9.73;;;4.85;;
2884;SDS011;54691;48.262;11.586;2022-09-23T22:29:32;9.73;;;3.80;;
2884;SDS011;54691;48.262;11.586;2022-09-23T22:33:19;7.03;;;4.30;;
2884;SDS011;54691;48.262;11.586;2022-09-23T22:40:16;7.25;;;4.10;;
2884;SDS011;54691;48.262;11.586;2022-09-23T22:47:13;7.55;;;3.77;;
2884;SDS011;54691;48.262;11.586;2022-09-23T22:54:13;8.85;;;4.47;;
2884;SDS011;54691;48.262;11.586;2022-09-23T23:04:49;9.95;;;3.90;;
2884;SDS011;54691;48.262;11.586;2022-09-23T23:11:47;10.80;;;3.87;;
2884;SDS011;54691;48.262;11.586;2022-09-23T23:18:44;7.85;;;4.05;;
2884;SDS011;54691;48.262;11.586;2022-09-23T23:25:42;9.20;;;4.92;;
2884;SDS011;54691;48.262;11.586;2022-09-23T23:32:39;8.63;;;4.78;;
2884;SDS011;54691;48.262;11.586;2022-09-23T23:39:36;10.28;;;5.05;;
2884;SDS011;54691;48.262;11.586;2022-09-23T23:46:33;13.83;;;4.03;;
2884;SDS011;54691;48.262;11.586;2022-09-23T23:53:32;7.65;;;3.85;;
